Butler, South Dakota
Current Conditions -  °F | °C
As of 9:53 PM on Tuesday 27 Jan 2015 (Local Time) from KABR Reporting Station
Clear Clear  
Wind Chill: -3°   Ceiling: Unl
Heat Index:   Visibility: 10mi
Dew Point:   Wind: 13mph
Humidity: 89%   Direction: 180°S
Pressure: 29.87"   Gusts: NA
Location:  45.2657°N, 97.7493°W
Report Text: KABR 280353Z AUTO 18011KT 10SM CLR 02/00 A2987 RMK AO2 SLP126 T00170000
Loading
Personal Weather Stations






























Interactive Weather Map New forecast layout! Learn more

10-Day Weather Forecast

Advertisements
Track Severe Weather on mobile